sensor_id;sensor_type;location;lat;lon;timestamp;P1;P2;P0
80396;PMS5003;69721;55.894;-3.052;2024-02-14T00:01:36;14;13;
80396;PMS5003;69721;55.894;-3.052;2024-02-14T00:04:01;12;12;
80396;PMS5003;69721;55.894;-3.052;2024-02-14T00:06:27;12;8;
80396;PMS5003;69721;55.894;-3.052;2024-02-14T00:08:52;9;8;
80396;PMS5003;69721;55.894;-3.052;2024-02-14T00:11:18;8;6;
80396;PMS5003;69721;55.894;-3.052;2024-02-14T00:13:43;3;3;
80396;PMS5003;69721;55.894;-3.052;2024-02-14T00:16:08;11;7;
80396;PMS5003;69721;55.894;-3.052;2024-02-14T00:18:34;8;7;
80396;PMS5003;69721;55.894;-3.052;2024-02-14T00:21:00;9;8;
80396;PMS5003;69721;55.894;-3.052;2024-02-14T00:23:26;4;4;
80396;PMS5003;69721;55.894;-3.052;2024-02-14T00:25:51;7;6;
80396;PMS5003;69721;55.894;-3.052;2024-02-14T00:28:17;8;6;
80396;PMS5003;69721;55.894;-3.052;2024-02-14T00:30:42;6;4;
80396;PMS5003;69721;55.894;-3.052;2024-02-14T00:33:08;6;5;
80396;PMS5003;69721;55.894;-3.052;2024-02-14T00:35:34;8;6;
80396;PMS5003;69721;55.894;-3.052;2024-02-14T00:37:59;9;5;
80396;PMS5003;69721;55.894;-3.052;2024-02-14T00:40:25;4;3;
80396;PMS5003;69721;55.894;-3.052;2024-02-14T00:42:50;5;5;
80396;PMS5003;69721;55.894;-3.052;2024-02-14T00:45:18;4;3;
80396;PMS5003;69721;55.894;-3.052;2024-02-14T00:47:43;6;5;
80396;PMS5003;69721;55.894;-3.052;2024-02-14T00:50:09;7;5;
80396;PMS5003;69721;55.894;-3.052;2024-02-14T00:52:34;5;5;
80396;PMS5003;69721;55.894;-3.052;2024-02-14T00:55:00;7;6;
80396;PMS5003;69721;55.894;-3.052;2024-02-14T00:57:25;7;4;
80396;PMS5003;69721;55.894;-3.052;2024-02-14T00:59:51;2;2;
80396;PMS5003;69721;55.894;-3.052;2024-02-14T01:02:17;8;4;
80396;PMS5003;69721;55.894;-3.052;2024-02-14T01:04:42;11;5;
80396;PMS5003;69721;55.894;-3.052;2024-02-14T01:07:08;5;4;
80396;PMS5003;69721;55.894;-3.052;2024-02-14T01:09:34;8;6;
80396;PMS5003;69721;55.894;-3.052;2024-02-14T01:11:59;7;5;
80396;PMS5003;69721;55.894;-3.052;2024-02-14T01:14:25;11;7;
80396;PMS5003;69721;55.894;-3.052;2024-02-14T01:16:50;5;4;
80396;PMS5003;69721;55.894;-3.052;2024-02-14T01:19:16;7;5;
80396;PMS5003;69721;55.894;-3.052;2024-02-14T01:21:42;6;6;
80396;PMS5003;69721;55.894;-3.052;2024-02-14T01:24:08;6;5;
80396;PMS5003;69721;55.894;-3.052;2024-02-14T01:26:33;10;6;
80396;PMS5003;69721;55.894;-3.052;2024-02-14T01:28:59;7;5;
80396;PMS5003;69721;55.894;-3.052;2024-02-14T01:31:24;3;3;
80396;PMS5003;69721;55.894;-3.052;2024-02-14T01:33:50;7;6;
80396;PMS5003;69721;55.894;-3.052;2024-02-14T01:36:16;5;3;
80396;PMS5003;69721;55.894;-3.052;2024-02-14T01:38:42;5;5;
80396;PMS5003;69721;55.894;-3.052;2024-02-14T01:41:08;7;7;
80396;PMS5003;69721;55.894;-3.052;2024-02-14T01:43:33;5;5;
80396;PMS5003;69721;55.894;-3.052;2024-02-14T01:46:03;9;6;
80396;PMS5003;69721;55.894;-3.052;2024-02-14T01:48:25;7;5;
80396;PMS5003;69721;55.894;-3.052;2024-02-14T01:50:51;5;4;
80396;PMS5003;69721;55.894;-3.052;2024-02-14T01:53:16;18;9;
80396;PMS5003;69721;55.894;-3.052;2024-02-14T01:55:42;13;7;
80396;PMS5003;69721;55.894;-3.052;2024-02-14T01:58:08;11;9;
80396;PMS5003;69721;55.894;-3.052;2024-02-14T02:00:33;6;6;
80396;PMS5003;69721;55.894;-3.052;2024-02-14T02:03:00;7;7;
80396;PMS5003;69721;55.894;-3.052;2024-02-14T02:05:25;9;7;
80396;PMS5003;69721;55.894;-3.052;2024-02-14T02:07:51;8;6;
80396;PMS5003;69721;55.894;-3.052;2024-02-14T02:10:17;13;11;
80396;PMS5003;69721;55.894;-3.052;2024-02-14T02:12:42;11;9;
80396;PMS5003;69721;55.894;-3.052;2024-02-14T02:15:08;12;9;
80396;PMS5003;69721;55.894;-3.052;2024-02-14T02:17:35;13;11;
80396;PMS5003;69721;55.894;-3.052;2024-02-14T02:19:59;6;6;
80396;PMS5003;69721;55.894;-3.052;2024-02-14T02:22:24;12;8;
80396;PMS5003;69721;55.894;-3.052;2024-02-14T02:24:50;9;8;
80396;PMS5003;69721;55.894;-3.052;2024-02-14T02:27:15;32;22;
80396;PMS5003;69721;55.894;-3.052;2024-02-14T02:29:41;22;16;
80396;PMS5003;69721;55.894;-3.052;2024-02-14T02:32:07;22;16;
80396;PMS5003;69721;55.894;-3.052;2024-02-14T02:34:32;31;25;
80396;PMS5003;69721;55.894;-3.052;2024-02-14T02:36:57;25;17;
80396;PMS5003;69721;55.894;-3.052;2024-02-14T02:39:23;33;26;
80396;PMS5003;69721;55.894;-3.052;2024-02-14T02:41:49;25;18;
80396;PMS5003;69721;55.894;-3.052;2024-02-14T02:44:14;18;15;
80396;PMS5003;69721;55.894;-3.052;2024-02-14T02:46:40;20;12;
80396;PMS5003;69721;55.894;-3.052;2024-02-14T02:49:05;18;12;
80396;PMS5003;69721;55.894;-3.052;2024-02-14T02:51:30;19;17;
80396;PMS5003;69721;55.894;-3.052;2024-02-14T02:53:57;20;11;
80396;PMS5003;69721;55.894;-3.052;2024-02-14T02:56:21;12;9;
80396;PMS5003;69721;55.894;-3.052;2024-02-14T02:58:47;13;12;
80396;PMS5003;69721;55.894;-3.052;2024-02-14T03:01:13;16;13;
80396;PMS5003;69721;55.894;-3.052;2024-02-14T03:03:38;15;11;
80396;PMS5003;69721;55.894;-3.052;2024-02-14T03:06:05;10;10;
80396;PMS5003;69721;55.894;-3.052;2024-02-14T03:08:30;12;11;
80396;PMS5003;69721;55.894;-3.052;2024-02-14T03:10:56;14;9;
80396;PMS5003;69721;55.894;-3.052;2024-02-14T03:13:21;10;10;
80396;PMS5003;69721;55.894;-3.052;2024-02-14T03:15:47;9;7;
80396;PMS5003;69721;55.894;-3.052;2024-02-14T03:18:12;9;9;
80396;PMS5003;69721;55.894;-3.052;2024-02-14T03:20:37;9;7;
80396;PMS5003;69721;55.894;-3.052;2024-02-14T03:23:03;6;6;
80396;PMS5003;69721;55.894;-3.052;2024-02-14T03:25:29;7;6;
80396;PMS5003;69721;55.894;-3.052;2024-02-14T03:27:54;8;6;
80396;PMS5003;69721;55.894;-3.052;2024-02-14T03:30:20;12;6;
80396;PMS5003;69721;55.894;-3.052;2024-02-14T03:32:45;8;5;
80396;PMS5003;69721;55.894;-3.052;2024-02-14T03:35:11;5;4;
80396;PMS5003;69721;55.894;-3.052;2024-02-14T03:37:37;6;5;
80396;PMS5003;69721;55.894;-3.052;2024-02-14T03:40:02;5;5;
80396;PMS5003;69721;55.894;-3.052;2024-02-14T03:42:28;8;5;
80396;PMS5003;69721;55.894;-3.052;2024-02-14T03:44:53;5;3;
80396;PMS5003;69721;55.894;-3.052;2024-02-14T03:47:18;8;6;
80396;PMS5003;69721;55.894;-3.052;2024-02-14T03:49:44;5;5;
80396;PMS5003;69721;55.894;-3.052;2024-02-14T03:52:10;4;4;
80396;PMS5003;69721;55.894;-3.052;2024-02-14T03:54:36;5;4;
80396;PMS5003;69721;55.894;-3.052;2024-02-14T03:57:01;4;4;
80396;PMS5003;69721;55.894;-3.052;2024-02-14T03:59:27;4;4;
80396;PMS5003;69721;55.894;-3.052;2024-02-14T04:01:52;4;4;
80396;PMS5003;69721;55.894;-3.052;2024-02-14T04:04:18;2;2;
80396;PMS5003;69721;55.894;-3.052;2024-02-14T04:06:44;4;4;
80396;PMS5003;69721;55.894;-3.052;2024-02-14T04:09:09;4;4;
80396;PMS5003;69721;55.894;-3.052;2024-02-14T04:11:35;2;2;
80396;PMS5003;69721;55.894;-3.052;2024-02-14T04:14:00;4;4;
80396;PMS5003;69721;55.894;-3.052;2024-02-14T04:16:26;5;4;
80396;PMS5003;69721;55.894;-3.052;2024-02-14T04:18:51;5;5;
80396;PMS5003;69721;55.894;-3.052;2024-02-14T04:21:17;3;3;
80396;PMS5003;69721;55.894;-3.052;2024-02-14T04:23:43;4;4;
80396;PMS5003;69721;55.894;-3.052;2024-02-14T04:26:08;3;3;
80396;PMS5003;69721;55.894;-3.052;2024-02-14T04:28:34;5;5;
80396;PMS5003;69721;55.894;-3.052;2024-02-14T04:30:59;3;3;
80396;PMS5003;69721;55.894;-3.052;2024-02-14T04:33:25;4;4;
80396;PMS5003;69721;55.894;-3.052;2024-02-14T04:35:51;4;4;
80396;PMS5003;69721;55.894;-3.052;2024-02-14T04:38:16;0;0;
80396;PMS5003;69721;55.894;-3.052;2024-02-14T04:40:41;4;3;
80396;PMS5003;69721;55.894;-3.052;2024-02-14T04:43:07;5;3;
80396;PMS5003;69721;55.894;-3.052;2024-02-14T04:45:32;4;3;
80396;PMS5003;69721;55.894;-3.052;2024-02-14T04:47:58;4;4;
80396;PMS5003;69721;55.894;-3.052;2024-02-14T04:50:23;5;4;
80396;PMS5003;69721;55.894;-3.052;2024-02-14T04:52:49;7;4;
80396;PMS5003;69721;55.894;-3.052;2024-02-14T04:55:15;5;4;
80396;PMS5003;69721;55.894;-3.052;2024-02-14T04:57:40;6;4;
80396;PMS5003;69721;55.894;-3.052;2024-02-14T05:00:06;3;3;
80396;PMS5003;69721;55.894;-3.052;2024-02-14T05:02:31;3;3;
80396;PMS5003;69721;55.894;-3.052;2024-02-14T05:04:57;5;5;
80396;PMS5003;69721;55.894;-3.052;2024-02-14T05:07:22;4;3;
80396;PMS5003;69721;55.894;-3.052;2024-02-14T05:09:48;6;4;
80396;PMS5003;69721;55.894;-3.052;2024-02-14T05:12:13;4;4;
80396;PMS5003;69721;55.894;-3.052;2024-02-14T05:14:39;5;3;
80396;PMS5003;69721;55.894;-3.052;2024-02-14T05:17:05;5;3;
80396;PMS5003;69721;55.894;-3.052;2024-02-14T05:19:30;3;3;
80396;PMS5003;69721;55.894;-3.052;2024-02-14T05:21:56;6;5;
80396;PMS5003;69721;55.894;-3.052;2024-02-14T05:24:21;6;5;
80396;PMS5003;69721;55.894;-3.052;2024-02-14T05:26:47;4;3;
80396;PMS5003;69721;55.894;-3.052;2024-02-14T05:29:12;3;3;
80396;PMS5003;69721;55.894;-3.052;2024-02-14T05:31:43;4;4;
80396;PMS5003;69721;55.894;-3.052;2024-02-14T05:34:04;6;4;
80396;PMS5003;69721;55.894;-3.052;2024-02-14T05:36:29;5;5;
80396;PMS5003;69721;55.894;-3.052;2024-02-14T05:38:55;4;4;
80396;PMS5003;69721;55.894;-3.052;2024-02-14T05:41:20;4;4;
80396;PMS5003;69721;55.894;-3.052;2024-02-14T05:43:46;4;4;
80396;PMS5003;69721;55.894;-3.052;2024-02-14T05:46:11;6;3;
80396;PMS5003;69721;55.894;-3.052;2024-02-14T05:48:38;5;4;
80396;PMS5003;69721;55.894;-3.052;2024-02-14T05:51:03;5;5;
80396;PMS5003;69721;55.894;-3.052;2024-02-14T05:53:28;4;3;
80396;PMS5003;69721;55.894;-3.052;2024-02-14T05:55:54;7;6;
80396;PMS5003;69721;55.894;-3.052;2024-02-14T05:58:19;7;4;
80396;PMS5003;69721;55.894;-3.052;2024-02-14T06:00:45;3;3;
80396;PMS5003;69721;55.894;-3.052;2024-02-14T06:03:11;5;5;
80396;PMS5003;69721;55.894;-3.052;2024-02-14T06:05:36;4;4;
80396;PMS5003;69721;55.894;-3.052;2024-02-14T06:08:02;4;3;
80396;PMS5003;69721;55.894;-3.052;2024-02-14T06:10:27;4;4;
80396;PMS5003;69721;55.894;-3.052;2024-02-14T06:12:53;5;4;
80396;PMS5003;69721;55.894;-3.052;2024-02-14T06:15:19;15;10;
80396;PMS5003;69721;55.894;-3.052;2024-02-14T06:17:44;5;5;
80396;PMS5003;69721;55.894;-3.052;2024-02-14T06:20:10;6;5;
80396;PMS5003;69721;55.894;-3.052;2024-02-14T06:22:35;14;10;
80396;PMS5003;69721;55.894;-3.052;2024-02-14T06:25:01;7;6;
80396;PMS5003;69721;55.894;-3.052;2024-02-14T06:27:26;5;5;
80396;PMS5003;69721;55.894;-3.052;2024-02-14T06:29:52;9;6;
80396;PMS5003;69721;55.894;-3.052;2024-02-14T06:32:18;5;5;
80396;PMS5003;69721;55.894;-3.052;2024-02-14T06:34:43;6;5;
80396;PMS5003;69721;55.894;-3.052;2024-02-14T06:37:09;7;6;
80396;PMS5003;69721;55.894;-3.052;2024-02-14T06:39:34;6;6;
80396;PMS5003;69721;55.894;-3.052;2024-02-14T06:42:00;6;5;
80396;PMS5003;69721;55.894;-3.052;2024-02-14T06:44:25;6;6;
80396;PMS5003;69721;55.894;-3.052;2024-02-14T06:46:50;5;5;
80396;PMS5003;69721;55.894;-3.052;2024-02-14T06:49:16;5;4;
80396;PMS5003;69721;55.894;-3.052;2024-02-14T06:51:41;7;5;
80396;PMS5003;69721;55.894;-3.052;2024-02-14T06:54:07;6;4;
80396;PMS5003;69721;55.894;-3.052;2024-02-14T06:56:33;7;7;
80396;PMS5003;69721;55.894;-3.052;2024-02-14T06:58:58;6;5;
80396;PMS5003;69721;55.894;-3.052;2024-02-14T07:01:23;5;4;
80396;PMS5003;69721;55.894;-3.052;2024-02-14T07:03:49;5;4;
80396;PMS5003;69721;55.894;-3.052;2024-02-14T07:06:15;4;4;
80396;PMS5003;69721;55.894;-3.052;2024-02-14T07:08:40;5;5;
80396;PMS5003;69721;55.894;-3.052;2024-02-14T07:11:06;5;5;
80396;PMS5003;69721;55.894;-3.052;2024-02-14T07:13:31;9;6;
80396;PMS5003;69721;55.894;-3.052;2024-02-14T07:15:57;12;12;
80396;PMS5003;69721;55.894;-3.052;2024-02-14T07:18:22;6;5;
80396;PMS5003;69721;55.894;-3.052;2024-02-14T07:20:48;8;5;
80396;PMS5003;69721;55.894;-3.052;2024-02-14T07:23:13;7;5;
80396;PMS5003;69721;55.894;-3.052;2024-02-14T07:25:39;11;6;
80396;PMS5003;69721;55.894;-3.052;2024-02-14T07:28:04;6;6;
80396;PMS5003;69721;55.894;-3.052;2024-02-14T07:30:30;7;6;
80396;PMS5003;69721;55.894;-3.052;2024-02-14T07:32:56;7;7;
80396;PMS5003;69721;55.894;-3.052;2024-02-14T07:35:21;5;5;
80396;PMS5003;69721;55.894;-3.052;2024-02-14T07:37:47;10;8;
80396;PMS5003;69721;55.894;-3.052;2024-02-14T07:40:12;5;4;
80396;PMS5003;69721;55.894;-3.052;2024-02-14T07:42:38;7;7;
80396;PMS5003;69721;55.894;-3.052;2024-02-14T07:45:04;8;7;
80396;PMS5003;69721;55.894;-3.052;2024-02-14T07:47:29;7;7;
80396;PMS5003;69721;55.894;-3.052;2024-02-14T07:49:55;9;6;
80396;PMS5003;69721;55.894;-3.052;2024-02-14T07:52:20;8;6;
80396;PMS5003;69721;55.894;-3.052;2024-02-14T07:54:45;8;6;
80396;PMS5003;69721;55.894;-3.052;2024-02-14T07:57:11;8;7;
80396;PMS5003;69721;55.894;-3.052;2024-02-14T07:59:37;10;7;
80396;PMS5003;69721;55.894;-3.052;2024-02-14T08:02:02;7;7;
80396;PMS5003;69721;55.894;-3.052;2024-02-14T08:04:28;10;7;
80396;PMS5003;69721;55.894;-3.052;2024-02-14T08:06:54;7;7;
80396;PMS5003;69721;55.894;-3.052;2024-02-14T08:09:20;7;4;
80396;PMS5003;69721;55.894;-3.052;2024-02-14T08:11:45;8;7;
80396;PMS5003;69721;55.894;-3.052;2024-02-14T08:14:11;7;5;
80396;PMS5003;69721;55.894;-3.052;2024-02-14T08:16:36;6;6;
80396;PMS5003;69721;55.894;-3.052;2024-02-14T08:19:02;6;6;
80396;PMS5003;69721;55.894;-3.052;2024-02-14T08:21:27;11;11;
80396;PMS5003;69721;55.894;-3.052;2024-02-14T08:23:53;9;9;
80396;PMS5003;69721;55.894;-3.052;2024-02-14T08:26:19;10;7;
80396;PMS5003;69721;55.894;-3.052;2024-02-14T08:28:44;9;9;
80396;PMS5003;69721;55.894;-3.052;2024-02-14T08:31:10;12;9;
80396;PMS5003;69721;55.894;-3.052;2024-02-14T08:33:35;42;36;
80396;PMS5003;69721;55.894;-3.052;2024-02-14T08:36:02;43;38;
80396;PMS5003;69721;55.894;-3.052;2024-02-14T08:38:26;39;31;
80396;PMS5003;69721;55.894;-3.052;2024-02-14T08:40:52;24;18;
80396;PMS5003;69721;55.894;-3.052;2024-02-14T08:43:17;24;18;
80396;PMS5003;69721;55.894;-3.052;2024-02-14T08:45:43;14;11;
80396;PMS5003;69721;55.894;-3.052;2024-02-14T08:48:08;17;12;
80396;PMS5003;69721;55.894;-3.052;2024-02-14T08:50:34;18;16;
80396;PMS5003;69721;55.894;-3.052;2024-02-14T08:52:59;25;22;
80396;PMS5003;69721;55.894;-3.052;2024-02-14T08:55:25;21;15;
80396;PMS5003;69721;55.894;-3.052;2024-02-14T08:57:50;14;14;
80396;PMS5003;69721;55.894;-3.052;2024-02-14T09:00:16;10;10;
80396;PMS5003;69721;55.894;-3.052;2024-02-14T09:02:41;12;7;
80396;PMS5003;69721;55.894;-3.052;2024-02-14T09:05:07;5;5;
80396;PMS5003;69721;55.894;-3.052;2024-02-14T09:07:33;8;8;
80396;PMS5003;69721;55.894;-3.052;2024-02-14T09:09:58;10;10;
80396;PMS5003;69721;55.894;-3.052;2024-02-14T09:12:24;46;35;
80396;PMS5003;69721;55.894;-3.052;2024-02-14T09:14:49;43;26;
80396;PMS5003;69721;55.894;-3.052;2024-02-14T09:17:15;38;30;
80396;PMS5003;69721;55.894;-3.052;2024-02-14T09:19:40;41;33;
80396;PMS5003;69721;55.894;-3.052;2024-02-14T09:22:06;27;21;
80396;PMS5003;69721;55.894;-3.052;2024-02-14T09:24:31;15;11;
80396;PMS5003;69721;55.894;-3.052;2024-02-14T09:26:56;16;13;
80396;PMS5003;69721;55.894;-3.052;2024-02-14T09:29:22;15;14;
80396;PMS5003;69721;55.894;-3.052;2024-02-14T09:31:47;16;16;
80396;PMS5003;69721;55.894;-3.052;2024-02-14T09:34:13;17;15;
80396;PMS5003;69721;55.894;-3.052;2024-02-14T09:36:39;14;12;
80396;PMS5003;69721;55.894;-3.052;2024-02-14T09:39:04;20;18;
80396;PMS5003;69721;55.894;-3.052;2024-02-14T09:41:31;18;15;
80396;PMS5003;69721;55.894;-3.052;2024-02-14T09:43:55;17;14;
80396;PMS5003;69721;55.894;-3.052;2024-02-14T09:46:21;15;12;
80396;PMS5003;69721;55.894;-3.052;2024-02-14T09:48:46;16;14;
80396;PMS5003;69721;55.894;-3.052;2024-02-14T09:51:11;20;18;
80396;PMS5003;69721;55.894;-3.052;2024-02-14T09:53:37;14;14;
80396;PMS5003;69721;55.894;-3.052;2024-02-14T09:56:02;14;11;
80396;PMS5003;69721;55.894;-3.052;2024-02-14T09:58:28;13;12;
80396;PMS5003;69721;55.894;-3.052;2024-02-14T10:00:53;13;13;
80396;PMS5003;69721;55.894;-3.052;2024-02-14T10:03:19;19;18;
80396;PMS5003;69721;55.894;-3.052;2024-02-14T10:05:45;20;17;
80396;PMS5003;69721;55.894;-3.052;2024-02-14T10:08:11;20;20;
80396;PMS5003;69721;55.894;-3.052;2024-02-14T10:10:37;18;17;
80396;PMS5003;69721;55.894;-3.052;2024-02-14T10:13:04;15;15;
80396;PMS5003;69721;55.894;-3.052;2024-02-14T10:15:27;18;15;
80396;PMS5003;69721;55.894;-3.052;2024-02-14T10:17:53;15;12;
80396;PMS5003;69721;55.894;-3.052;2024-02-14T10:20:18;12;11;
80396;PMS5003;69721;55.894;-3.052;2024-02-14T10:22:44;13;13;
80396;PMS5003;69721;55.894;-3.052;2024-02-14T10:25:09;11;10;
80396;PMS5003;69721;55.894;-3.052;2024-02-14T10:27:35;21;16;
80396;PMS5003;69721;55.894;-3.052;2024-02-14T10:30:00;14;14;
80396;PMS5003;69721;55.894;-3.052;2024-02-14T10:32:25;11;11;
80396;PMS5003;69721;55.894;-3.052;2024-02-14T10:34:51;14;12;
80396;PMS5003;69721;55.894;-3.052;2024-02-14T10:37:16;9;9;
80396;PMS5003;69721;55.894;-3.052;2024-02-14T10:39:42;14;13;
80396;PMS5003;69721;55.894;-3.052;2024-02-14T10:42:07;11;10;
80396;PMS5003;69721;55.894;-3.052;2024-02-14T10:44:34;10;9;
80396;PMS5003;69721;55.894;-3.052;2024-02-14T10:46:59;14;10;
80396;PMS5003;69721;55.894;-3.052;2024-02-14T10:49:24;14;10;
80396;PMS5003;69721;55.894;-3.052;2024-02-14T10:51:49;14;11;
80396;PMS5003;69721;55.894;-3.052;2024-02-14T10:54:14;7;7;
80396;PMS5003;69721;55.894;-3.052;2024-02-14T10:56:41;11;10;
80396;PMS5003;69721;55.894;-3.052;2024-02-14T10:59:05;7;7;
80396;PMS5003;69721;55.894;-3.052;2024-02-14T11:01:31;8;8;
80396;PMS5003;69721;55.894;-3.052;2024-02-14T11:03:56;10;9;
80396;PMS5003;69721;55.894;-3.052;2024-02-14T11:06:21;7;7;
80396;PMS5003;69721;55.894;-3.052;2024-02-14T11:08:55;10;8;
80396;PMS5003;69721;55.894;-3.052;2024-02-14T11:11:13;9;7;
80396;PMS5003;69721;55.894;-3.052;2024-02-14T11:13:40;7;7;
80396;PMS5003;69721;55.894;-3.052;2024-02-14T11:16:04;11;9;
80396;PMS5003;69721;55.894;-3.052;2024-02-14T11:18:30;8;7;
80396;PMS5003;69721;55.894;-3.052;2024-02-14T11:20:55;7;6;
80396;PMS5003;69721;55.894;-3.052;2024-02-14T11:23:21;8;8;
80396;PMS5003;69721;55.894;-3.052;2024-02-14T11:25:46;13;9;
80396;PMS5003;69721;55.894;-3.052;2024-02-14T11:28:13;8;7;
80396;PMS5003;69721;55.894;-3.052;2024-02-14T11:30:39;11;9;
80396;PMS5003;69721;55.894;-3.052;2024-02-14T11:33:10;12;10;
80396;PMS5003;69721;55.894;-3.052;2024-02-14T11:35:28;8;8;
80396;PMS5003;69721;55.894;-3.052;2024-02-14T11:37:54;8;8;
80396;PMS5003;69721;55.894;-3.052;2024-02-14T11:40:19;10;10;
80396;PMS5003;69721;55.894;-3.052;2024-02-14T11:42:45;16;10;
80396;PMS5003;69721;55.894;-3.052;2024-02-14T11:45:10;11;7;
80396;PMS5003;69721;55.894;-3.052;2024-02-14T11:47:36;10;8;
80396;PMS5003;69721;55.894;-3.052;2024-02-14T11:50:01;9;9;
80396;PMS5003;69721;55.894;-3.052;2024-02-14T11:52:26;15;13;
80396;PMS5003;69721;55.894;-3.052;2024-02-14T11:54:51;14;12;
80396;PMS5003;69721;55.894;-3.052;2024-02-14T11:57:17;10;10;
80396;PMS5003;69721;55.894;-3.052;2024-02-14T11:59:42;13;13;
80396;PMS5003;69721;55.894;-3.052;2024-02-14T12:02:08;11;11;
80396;PMS5003;69721;55.894;-3.052;2024-02-14T12:04:33;12;11;
80396;PMS5003;69721;55.894;-3.052;2024-02-14T12:06:58;23;17;
80396;PMS5003;69721;55.894;-3.052;2024-02-14T12:09:24;13;12;
80396;PMS5003;69721;55.894;-3.052;2024-02-14T12:11:49;11;10;
80396;PMS5003;69721;55.894;-3.052;2024-02-14T12:14:15;11;10;
80396;PMS5003;69721;55.894;-3.052;2024-02-14T12:16:40;18;13;
80396;PMS5003;69721;55.894;-3.052;2024-02-14T12:19:06;15;12;
80396;PMS5003;69721;55.894;-3.052;2024-02-14T12:21:36;16;13;
80396;PMS5003;69721;55.894;-3.052;2024-02-14T12:23:58;19;14;
80396;PMS5003;69721;55.894;-3.052;2024-02-14T12:26:22;10;9;
80396;PMS5003;69721;55.894;-3.052;2024-02-14T12:28:48;15;13;
80396;PMS5003;69721;55.894;-3.052;2024-02-14T12:33:39;16;13;
80396;PMS5003;69721;55.894;-3.052;2024-02-14T12:36:05;13;11;
80396;PMS5003;69721;55.894;-3.052;2024-02-14T12:38:29;12;12;
80396;PMS5003;69721;55.894;-3.052;2024-02-14T12:40:55;15;13;
80396;PMS5003;69721;55.894;-3.052;2024-02-14T12:43:20;12;10;
80396;PMS5003;69721;55.894;-3.052;2024-02-14T12:45:46;14;13;
80396;PMS5003;69721;55.894;-3.052;2024-02-14T12:48:12;15;12;
80396;PMS5003;69721;55.894;-3.052;2024-02-14T12:50:37;13;11;
80396;PMS5003;69721;55.894;-3.052;2024-02-14T12:53:02;17;16;
80396;PMS5003;69721;55.894;-3.052;2024-02-14T12:55:28;16;15;
80396;PMS5003;69721;55.894;-3.052;2024-02-14T12:57:53;24;23;
80396;PMS5003;69721;55.894;-3.052;2024-02-14T13:00:18;22;21;
80396;PMS5003;69721;55.894;-3.052;2024-02-14T13:02:44;14;13;
80396;PMS5003;69721;55.894;-3.052;2024-02-14T13:05:09;14;14;
80396;PMS5003;69721;55.894;-3.052;2024-02-14T13:07:35;16;15;
80396;PMS5003;69721;55.894;-3.052;2024-02-14T13:10:00;10;10;
80396;PMS5003;69721;55.894;-3.052;2024-02-14T13:12:26;16;14;
80396;PMS5003;69721;55.894;-3.052;2024-02-14T13:14:52;22;19;
80396;PMS5003;69721;55.894;-3.052;2024-02-14T13:17:17;22;19;
80396;PMS5003;69721;55.894;-3.052;2024-02-14T13:20:21;10;10;
80396;PMS5003;69721;55.894;-3.052;2024-02-14T13:22:47;18;16;
80396;PMS5003;69721;55.894;-3.052;2024-02-14T13:25:12;16;14;
80396;PMS5003;69721;55.894;-3.052;2024-02-14T13:27:38;18;15;
80396;PMS5003;69721;55.894;-3.052;2024-02-14T13:30:03;20;18;
80396;PMS5003;69721;55.894;-3.052;2024-02-14T13:32:29;17;16;
80396;PMS5003;69721;55.894;-3.052;2024-02-14T13:34:54;15;12;
80396;PMS5003;69721;55.894;-3.052;2024-02-14T13:37:20;18;17;
80396;PMS5003;69721;55.894;-3.052;2024-02-14T13:39:46;20;18;
80396;PMS5003;69721;55.894;-3.052;2024-02-14T13:42:11;15;15;
80396;PMS5003;69721;55.894;-3.052;2024-02-14T13:44:36;20;17;
80396;PMS5003;69721;55.894;-3.052;2024-02-14T13:47:02;17;15;
80396;PMS5003;69721;55.894;-3.052;2024-02-14T13:49:27;18;16;
80396;PMS5003;69721;55.894;-3.052;2024-02-14T13:51:52;15;15;
80396;PMS5003;69721;55.894;-3.052;2024-02-14T13:54:17;19;16;
80396;PMS5003;69721;55.894;-3.052;2024-02-14T13:56:43;16;14;
80396;PMS5003;69721;55.894;-3.052;2024-02-14T13:59:08;18;18;
80396;PMS5003;69721;55.894;-3.052;2024-02-14T14:01:33;19;16;
80396;PMS5003;69721;55.894;-3.052;2024-02-14T14:03:59;17;15;
80396;PMS5003;69721;55.894;-3.052;2024-02-14T14:06:24;23;19;
80396;PMS5003;69721;55.894;-3.052;2024-02-14T14:08:49;17;15;
80396;PMS5003;69721;55.894;-3.052;2024-02-14T14:11:15;13;13;
80396;PMS5003;69721;55.894;-3.052;2024-02-14T14:13:41;18;16;
80396;PMS5003;69721;55.894;-3.052;2024-02-14T14:16:07;17;15;
80396;PMS5003;69721;55.894;-3.052;2024-02-14T14:18:32;21;18;
80396;PMS5003;69721;55.894;-3.052;2024-02-14T14:20:57;15;14;
80396;PMS5003;69721;55.894;-3.052;2024-02-14T14:23:22;16;15;
80396;PMS5003;69721;55.894;-3.052;2024-02-14T14:25:47;22;20;
80396;PMS5003;69721;55.894;-3.052;2024-02-14T14:28:19;13;13;
80396;PMS5003;69721;55.894;-3.052;2024-02-14T14:30:44;20;16;
80396;PMS5003;69721;55.894;-3.052;2024-02-14T14:33:09;19;15;
80396;PMS5003;69721;55.894;-3.052;2024-02-14T14:35:35;19;19;
80396;PMS5003;69721;55.894;-3.052;2024-02-14T14:38:00;20;16;
80396;PMS5003;69721;55.894;-3.052;2024-02-14T14:40:26;17;17;
80396;PMS5003;69721;55.894;-3.052;2024-02-14T14:42:56;20;20;
80396;PMS5003;69721;55.894;-3.052;2024-02-14T14:45:17;20;16;
80396;PMS5003;69721;55.894;-3.052;2024-02-14T14:47:43;14;13;
80396;PMS5003;69721;55.894;-3.052;2024-02-14T14:50:08;16;13;
80396;PMS5003;69721;55.894;-3.052;2024-02-14T14:52:34;13;13;
80396;PMS5003;69721;55.894;-3.052;2024-02-14T14:54:59;16;16;
80396;PMS5003;69721;55.894;-3.052;2024-02-14T14:57:25;23;20;
80396;PMS5003;69721;55.894;-3.052;2024-02-14T14:59:50;20;20;
80396;PMS5003;69721;55.894;-3.052;2024-02-14T15:02:16;21;17;
80396;PMS5003;69721;55.894;-3.052;2024-02-14T15:04:41;18;16;
80396;PMS5003;69721;55.894;-3.052;2024-02-14T15:07:07;17;14;
80396;PMS5003;69721;55.894;-3.052;2024-02-14T15:09:32;17;12;
80396;PMS5003;69721;55.894;-3.052;2024-02-14T15:11:58;12;12;
80396;PMS5003;69721;55.894;-3.052;2024-02-14T15:14:23;18;14;
80396;PMS5003;69721;55.894;-3.052;2024-02-14T15:16:48;8;6;
80396;PMS5003;69721;55.894;-3.052;2024-02-14T15:19:13;14;13;
80396;PMS5003;69721;55.894;-3.052;2024-02-14T15:21:39;8;6;
80396;PMS5003;69721;55.894;-3.052;2024-02-14T15:24:05;9;8;
80396;PMS5003;69721;55.894;-3.052;2024-02-14T15:26:30;12;9;
80396;PMS5003;69721;55.894;-3.052;2024-02-14T15:28:55;16;10;
80396;PMS5003;69721;55.894;-3.052;2024-02-14T15:31:21;9;8;
80396;PMS5003;69721;55.894;-3.052;2024-02-14T15:33:46;8;8;
80396;PMS5003;69721;55.894;-3.052;2024-02-14T15:36:12;7;6;
80396;PMS5003;69721;55.894;-3.052;2024-02-14T15:38:37;6;6;
80396;PMS5003;69721;55.894;-3.052;2024-02-14T15:41:03;5;5;
80396;PMS5003;69721;55.894;-3.052;2024-02-14T15:43:28;6;5;
80396;PMS5003;69721;55.894;-3.052;2024-02-14T15:45:53;6;6;
80396;PMS5003;69721;55.894;-3.052;2024-02-14T15:48:19;3;3;
80396;PMS5003;69721;55.894;-3.052;2024-02-14T15:50:45;6;4;
80396;PMS5003;69721;55.894;-3.052;2024-02-14T15:53:09;9;9;
80396;PMS5003;69721;55.894;-3.052;2024-02-14T15:55:35;8;7;
80396;PMS5003;69721;55.894;-3.052;2024-02-14T15:58:01;7;7;
80396;PMS5003;69721;55.894;-3.052;2024-02-14T16:00:27;7;6;
80396;PMS5003;69721;55.894;-3.052;2024-02-14T16:02:52;7;7;
80396;PMS5003;69721;55.894;-3.052;2024-02-14T16:05:17;8;8;
80396;PMS5003;69721;55.894;-3.052;2024-02-14T16:07:43;18;16;
80396;PMS5003;69721;55.894;-3.052;2024-02-14T16:10:09;5;4;